Time;durP1;ratioP1;P1;durP2;ratioP2;P2;SDS_P1;SDS_P2;PMS_P1;PMS_P2;Temp;Humidity;BMP_temperature;BMP_pressure;BME280_temperature;BME280_humidity;BME280_pressure;Samples;Min_cycle;Max_cycle;Signal;HPM_P1;HPM_P2
2022/06/15 00:02:07;;;;;;;;;;;;;;;-146.27;100.00;64033.13;5111899;28;19912;-48
2022/06/15 00:04:33;;;;;;;;;;;;;;;-146.27;100.00;64033.13;5111338;28;20006;-46
2022/06/15 00:06:59;;;;;;;;;;;;;;;-146.27;100.00;64033.13;5111244;28;19919;-48
2022/06/15 00:09:24;;;;;;;;;;;;;;;-146.27;100.00;64033.13;5111359;28;20006;-50
2022/06/15 00:11:50;;;;;;;;;;;;;;;-146.27;100.00;64033.13;5107521;28;19919;-48
2022/06/15 00:14:22;;;;;;;;;;;;;;;-146.27;100.00;64033.13;5090534;28;20004;-50
2022/06/15 00:16:47;;;;;;;;;;;;;;;-146.27;100.00;64033.13;5090895;28;20008;-48
2022/06/15 00:19:12;;;;;;;;;;;;;;;-146.27;100.00;64033.13;5091146;28;19986;-48
2022/06/15 00:21:38;;;;;;;;;;;;;;;-146.27;100.00;64033.13;5103847;28;20393;-50
2022/06/15 00:24:04;;;;;;;;;;;;;;;-146.27;100.00;64033.13;5110344;28;19919;-48
2022/06/15 00:26:29;;;;;;;;;;;;;;;-146.27;100.00;64033.13;5111085;28;19918;-52
2022/06/15 00:28:55;;;;;;;;;;;;;;;-146.27;100.00;64033.13;5115148;28;19942;-52
2022/06/15 00:31:20;;;;;;;;;;;;;;;-146.27;100.00;64033.13;5114602;28;19916;-48
2022/06/15 00:33:46;;;;;;;;;;;;;;;-146.27;100.00;64033.13;5114903;28;19942;-47
2022/06/15 00:36:13;;;;;;;;;;;;;;;-146.27;100.00;64033.13;5114486;28;19969;-50
2022/06/15 00:38:40;;;;;;;;;;;;;;;-146.27;100.00;64033.13;5114650;28;19916;-48
2022/06/15 00:41:07;;;;;;;;;;;;;;;-146.27;100.00;64033.13;5114852;28;19912;-48
2022/06/15 00:43:35;;;;;;;;;;;;;;;-146.27;100.00;64033.13;5114939;28;19916;-48
2022/06/15 00:46:01;;;;;;;;;;;;;;;-146.27;100.00;64033.13;5114637;28;19912;-51
2022/06/15 00:48:26;;;;;;;;;;;;;;;-146.27;100.00;64033.13;5114850;28;19911;-48
2022/06/15 00:50:52;;;;;;;;;;;;;;;-146.27;100.00;64033.13;5114571;28;19938;-47
2022/06/15 00:53:17;;;;;;;;;;;;;;;-146.27;100.00;64033.13;5114295;28;20370;-49
2022/06/15 00:55:42;;;;;;;;;;;;;;;-146.27;100.00;64033.13;5114346;28;19919;-47
2022/06/15 00:58:09;;;;;;;;;;;;;;;-146.27;100.00;64033.13;5114071;28;19974;-50
2022/06/15 01:00:34;;;;;;;;;;;;;;;-146.27;100.00;64033.13;5114480;28;19961;-49
2022/06/15 01:03:00;;;;;;;;;;;;;;;-146.27;100.00;64033.13;5114578;28;19911;-48
2022/06/15 01:05:30;;;;;;;;;;;;;;;-146.27;100.00;64033.13;5114654;28;19996;-50
2022/06/15 01:08:02;;;;;;;;;;;;;;;-146.27;100.00;64033.13;5114004;28;19912;-50
2022/06/15 01:10:30;;;;;;;;;;;;;;;-146.27;100.00;64033.13;5114328;28;19990;-50
2022/06/15 01:13:13;;;;;;;;;;;;;;;-146.27;100.00;64033.13;5101875;28;19913;-48
2022/06/15 01:15:48;;;;;;;;;;;;;;;-146.27;100.00;64033.13;5093745;28;19922;-47
2022/06/15 01:18:17;;;;;;;;;;;;;;;-146.27;100.00;64033.13;5093382;28;20128;-48
2022/06/15 01:20:43;;;;;;;;;;;;;;;-146.27;100.00;64033.13;5099187;28;19912;-48
2022/06/15 01:23:14;;;;;;;;;;;;;;;-146.27;100.00;64033.13;5113787;28;19911;-49
2022/06/15 01:25:42;;;;;;;;;;;;;;;-146.27;100.00;64033.13;5113858;28;19912;-48
2022/06/15 01:28:27;;;;;;;;;;;;;;;-146.27;100.00;64033.13;5113573;28;19911;-48
2022/06/15 01:31:07;;;;;;;;;;;;;;;-146.27;100.00;64033.13;5113747;28;19916;-48
2022/06/15 01:33:48;;;;;;;;;;;;;;;-146.27;100.00;64033.13;5113561;28;19963;-50
2022/06/15 01:36:13;;;;;;;;;;;;;;;-146.27;100.00;64033.13;5114094;28;19919;-48
2022/06/15 01:38:58;;;;;;;;;;;;;;;-146.27;100.00;64033.13;5113277;28;19965;-48
2022/06/15 01:41:30;;;;;;;;;;;;;;;-146.27;100.00;64033.13;5113641;28;20279;-51
2022/06/15 01:43:58;;;;;;;;;;;;;;;-146.27;100.00;64033.13;5113537;28;20459;-48
2022/06/15 01:46:24;;;;;;;;;;;;;;;-146.27;100.00;64033.13;5113646;28;20297;-48
2022/06/15 01:48:51;;;;;;;;;;;;;;;-146.27;100.00;64033.13;5113384;28;20375;-50
2022/06/15 01:51:20;;;;;;;;;;;;;;;-146.27;100.00;64033.13;5113134;28;20391;-49
2022/06/15 01:53:57;;;;;;;;;;;;;;;-146.27;100.00;64033.13;5113784;28;20022;-52
2022/06/15 01:56:26;;;;;;;;;;;;;;;-146.27;100.00;64033.13;5113379;27;20006;-49
2022/06/15 01:58:55;;;;;;;;;;;;;;;-146.27;100.00;64033.13;5112818;28;19916;-49
2022/06/15 02:01:25;;;;;;;;;;;;;;;-146.27;100.00;64033.13;5112594;28;19911;-49
2022/06/15 02:04:10;;;;;;;;;;;;;;;-146.27;100.00;64033.13;5113356;28;19960;-49
2022/06/15 02:06:55;;;;;;;;;;;;;;;-146.27;100.00;64033.13;5112764;28;19919;-49
2022/06/15 02:09:29;;;;;;;;;;;;;;;-146.27;100.00;64033.13;5113366;28;19915;-48
2022/06/15 02:11:55;;;;;;;;;;;;;;;-146.27;100.00;64033.13;5108408;28;19998;-49
2022/06/15 02:14:24;;;;;;;;;;;;;;;-146.27;100.00;64033.13;5092935;28;19944;-47
2022/06/15 02:16:52;;;;;;;;;;;;;;;-146.27;100.00;64033.13;5092578;28;20433;-48
2022/06/15 02:19:19;;;;;;;;;;;;;;;-146.27;100.00;64033.13;5092415;28;20300;-47
2022/06/15 02:21:45;;;;;;;;;;;;;;;-146.27;100.00;64033.13;5106532;28;19959;-48
2022/06/15 02:24:12;;;;;;;;;;;;;;;-146.27;100.00;64033.13;5112779;28;20066;-48
2022/06/15 02:26:39;;;;;;;;;;;;;;;-146.27;100.00;64033.13;5112717;28;19994;-48
2022/06/15 02:29:07;;;;;;;;;;;;;;;-146.27;100.00;64033.13;5112858;28;19915;-48
2022/06/15 02:31:33;;;;;;;;;;;;;;;-146.27;100.00;64033.13;5112304;28;19912;-38
2022/06/15 02:34:01;;;;;;;;;;;;;;;-146.27;100.00;64033.13;5112162;28;20321;-38
2022/06/15 02:36:27;;;;;;;;;;;;;;;-146.27;100.00;64033.13;5112746;28;19912;-38
2022/06/15 02:38:52;;;;;;;;;;;;;;;-146.27;100.00;64033.13;5112232;28;20394;-38
2022/06/15 02:41:19;;;;;;;;;;;;;;;-146.27;100.00;64033.13;5112464;28;19918;-38
2022/06/15 02:43:46;;;;;;;;;;;;;;;-146.27;100.00;64033.13;5112234;28;19918;-38
2022/06/15 02:46:13;;;;;;;;;;;;;;;-146.27;100.00;64033.13;5112543;28;19912;-38
2022/06/15 02:48:39;;;;;;;;;;;;;;;-146.27;100.00;64033.13;5112539;28;19912;-37
2022/06/15 02:51:11;;;;;;;;;;;;;;;-146.27;100.00;64033.13;5111753;28;19922;-37
2022/06/15 02:53:39;;;;;;;;;;;;;;;-146.27;100.00;64033.13;5111972;28;19918;-37
2022/06/15 02:56:06;;;;;;;;;;;;;;;-146.27;100.00;64033.13;5112366;28;19943;-38
2022/06/15 02:58:33;;;;;;;;;;;;;;;-146.27;100.00;64033.13;5112086;28;19920;-39
2022/06/15 03:00:59;;;;;;;;;;;;;;;-146.27;100.00;64033.13;5112165;28;20299;-39
2022/06/15 03:03:25;;;;;;;;;;;;;;;-146.27;100.00;64033.13;5111937;28;19911;-36
2022/06/15 03:05:51;;;;;;;;;;;;;;;-146.27;100.00;64033.13;5108831;28;19918;-38
2022/06/15 03:08:17;;;;;;;;;;;;;;;-146.27;100.00;64033.13;5091820;28;19912;-37
2022/06/15 03:10:42;;;;;;;;;;;;;;;-146.27;100.00;64033.13;5091526;28;19916;-38
2022/06/15 03:13:08;;;;;;;;;;;;;;;-146.27;100.00;64033.13;5090839;28;19935;-37
2022/06/15 03:15:34;;;;;;;;;;;;;;;-146.27;100.00;64033.13;5090655;28;19962;-38
2022/06/15 03:17:59;;;;;;;;;;;;;;;-146.27;100.00;64033.13;5091344;28;19908;-37
2022/06/15 03:20:25;;;;;;;;;;;;;;;-146.27;100.00;64033.13;5094422;28;19911;-38
2022/06/15 03:22:51;;;;;;;;;;;;;;;-146.27;100.00;64033.13;5111685;28;20014;-38
2022/06/15 03:25:16;;;;;;;;;;;;;;;-146.27;100.00;64033.13;5111694;28;19999;-37
2022/06/15 03:27:41;;;;;;;;;;;;;;;-146.27;100.00;64033.13;5112104;28;20367;-37
2022/06/15 03:30:07;;;;;;;;;;;;;;;-146.27;100.00;64033.13;5111431;28;20407;-37
2022/06/15 03:32:33;;;;;;;;;;;;;;;-146.27;100.00;64033.13;5111218;28;19919;-38
2022/06/15 03:34:58;;;;;;;;;;;;;;;-146.27;100.00;64033.13;5111608;28;20294;-37
2022/06/15 03:37:24;;;;;;;;;;;;;;;-146.27;100.00;64033.13;5111418;28;20334;-37
2022/06/15 03:39:49;;;;;;;;;;;;;;;-146.27;100.00;64033.13;5111548;28;20345;-36
2022/06/15 03:42:18;;;;;;;;;;;;;;;-146.27;100.00;64033.13;5097075;28;20011;-38
2022/06/15 03:44:44;;;;;;;;;;;;;;;-146.27;100.00;64033.13;5090734;28;20365;-38
2022/06/15 03:47:19;;;;;;;;;;;;;;;-146.27;100.00;64033.13;5090635;28;20006;-38
2022/06/15 03:49:45;;;;;;;;;;;;;;;-146.27;100.00;64033.13;5091043;28;20445;-38
2022/06/15 03:52:10;;;;;;;;;;;;;;;-146.27;100.00;64033.13;5090716;28;19912;-38
2022/06/15 03:54:36;;;;;;;;;;;;;;;-146.27;100.00;64033.13;5090646;28;19969;-38
2022/06/15 03:57:02;;;;;;;;;;;;;;;-146.27;100.00;64033.13;5090536;28;19912;-38
2022/06/15 03:59:28;;;;;;;;;;;;;;;-146.27;100.00;64033.13;5090881;28;19922;-38
2022/06/15 04:01:53;;;;;;;;;;;;;;;-146.27;100.00;64033.13;5093191;28;19912;-38
2022/06/15 04:04:18;;;;;;;;;;;;;;;-146.27;100.00;64033.13;5095358;28;19912;-37
2022/06/15 04:06:44;;;;;;;;;;;;;;;-146.27;100.00;64033.13;5094909;28;20264;-37
2022/06/15 04:09:09;;;;;;;;;;;;;;;-146.27;100.00;64033.13;5094651;28;20397;-38
2022/06/15 04:14:18;;;;;;;;;;;;;;;-146.27;100.00;64033.13;5095134;28;20320;-37
2022/06/15 04:16:44;;;;;;;;;;;;;;;-146.27;100.00;64033.13;5094496;28;20406;-38
2022/06/15 04:19:11;;;;;;;;;;;;;;;-146.27;100.00;64033.13;5094478;28;19916;-38
2022/06/15 04:21:36;;;;;;;;;;;;;;;-146.27;100.00;64033.13;5107688;28;19923;-38
2022/06/15 04:24:02;;;;;;;;;;;;;;;-146.27;100.00;64033.13;5115050;28;19912;-38
2022/06/15 04:26:27;;;;;;;;;;;;;;;-146.27;100.00;64033.13;5114680;28;19923;-38
2022/06/15 04:28:53;;;;;;;;;;;;;;;-146.27;100.00;64033.13;5114749;28;19907;-36
2022/06/15 04:31:18;;;;;;;;;;;;;;;-146.27;100.00;64033.13;5114361;28;19916;-38
2022/06/15 04:33:43;;;;;;;;;;;;;;;-146.27;100.00;64033.13;5114442;28;19962;-38
2022/06/15 04:36:12;;;;;;;;;;;;;;;-146.27;100.00;64033.13;5106104;28;19921;-37
2022/06/15 04:38:37;;;;;;;;;;;;;;;-146.27;100.00;64033.13;5077866;28;19928;-38
2022/06/15 04:41:03;;;;;;;;;;;;;;;-146.27;100.00;64033.13;5077876;28;19931;-36
2022/06/15 04:43:28;;;;;;;;;;;;;;;-146.27;100.00;64033.13;5073826;28;19912;-37
2022/06/15 04:45:54;;;;;;;;;;;;;;;-146.27;100.00;64033.13;5073615;28;19971;-37
2022/06/15 04:48:19;;;;;;;;;;;;;;;-146.27;100.00;64033.13;5070530;28;19913;-38
2022/06/15 04:50:44;;;;;;;;;;;;;;;-146.27;100.00;64033.13;5071319;28;19913;-38
2022/06/15 04:53:10;;;;;;;;;;;;;;;-146.27;100.00;64033.13;5071786;28;20298;-37
2022/06/15 04:55:35;;;;;;;;;;;;;;;-146.27;100.00;64033.13;5071551;28;19966;-38
2022/06/15 04:58:01;;;;;;;;;;;;;;;-146.27;100.00;64033.13;5071940;28;19913;-38
2022/06/15 05:00:35;;;;;;;;;;;;;;;-146.27;100.00;64033.13;5072392;28;19913;-36
2022/06/15 05:03:01;;;;;;;;;;;;;;;-146.27;100.00;64033.13;5089551;28;19915;-37
2022/06/15 05:05:26;;;;;;;;;;;;;;;-146.27;100.00;64033.13;5091140;28;20414;-38
2022/06/15 05:07:53;;;;;;;;;;;;;;;-146.27;100.00;64033.13;5089727;28;19919;-38
2022/06/15 05:10:19;;;;;;;;;;;;;;;-146.27;100.00;64033.13;5097636;28;20344;-38
2022/06/15 05:12:45;;;;;;;;;;;;;;;-146.27;100.00;64033.13;5101511;28;19912;-38
2022/06/15 05:15:10;;;;;;;;;;;;;;;-146.27;100.00;64033.13;5092728;28;19934;-39
2022/06/15 05:17:36;;;;;;;;;;;;;;;-146.27;100.00;64033.13;5092559;28;19912;-38
2022/06/15 05:20:01;;;;;;;;;;;;;;;-146.27;100.00;64033.13;5092408;28;19916;-38
2022/06/15 05:22:27;;;;;;;;;;;;;;;-146.27;100.00;64033.13;5094460;28;20035;-37
2022/06/15 05:24:52;;;;;;;;;;;;;;;-146.27;100.00;64033.13;5095708;28;21248;-38
2022/06/15 05:27:17;;;;;;;;;;;;;;;-146.27;100.00;64033.13;5091390;28;19935;-38
2022/06/15 05:29:43;;;;;;;;;;;;;;;-146.27;100.00;64033.13;5092691;28;19916;-38
2022/06/15 05:32:08;;;;;;;;;;;;;;;-146.27;100.00;64033.13;5101750;28;19965;-38
2022/06/15 05:34:34;;;;;;;;;;;;;;;-146.27;100.00;64033.13;5100273;28;19978;-39
2022/06/15 05:37:00;;;;;;;;;;;;;;;-146.27;100.00;64033.13;5092796;28;20011;-39
2022/06/15 05:39:25;;;;;;;;;;;;;;;-146.27;100.00;64033.13;5093391;28;20051;-42
2022/06/15 05:41:50;;;;;;;;;;;;;;;-146.27;100.00;64033.13;5093161;28;19912;-38
2022/06/15 05:46:48;;;;;;;;;;;;;;;-146.27;100.00;64033.13;5093303;28;20002;-38
2022/06/15 05:49:13;;;;;;;;;;;;;;;-146.27;100.00;64033.13;5092359;28;20020;-37
2022/06/15 05:51:40;;;;;;;;;;;;;;;-146.27;100.00;64033.13;5091639;28;20040;-37
2022/06/15 05:54:07;;;;;;;;;;;;;;;-146.27;100.00;64033.13;5091567;28;19956;-38
2022/06/15 05:56:33;;;;;;;;;;;;;;;-146.27;100.00;64033.13;5091844;28;19935;-38
2022/06/15 05:58:59;;;;;;;;;;;;;;;-146.27;100.00;64033.13;5090385;28;19916;-39
2022/06/15 06:01:26;;;;;;;;;;;;;;;-146.27;100.00;64033.13;5091848;28;20347;-38
2022/06/15 06:03:52;;;;;;;;;;;;;;;-146.27;100.00;64033.13;5092078;28;19972;-37
2022/06/15 06:06:17;;;;;;;;;;;;;;;-146.27;100.00;64033.13;5091741;28;20007;-37
2022/06/15 06:08:42;;;;;;;;;;;;;;;-146.27;100.00;64033.13;5092134;28;19912;-38
2022/06/15 06:11:08;;;;;;;;;;;;;;;-146.27;100.00;64033.13;5092012;28;20245;-37
2022/06/15 06:13:33;;;;;;;;;;;;;;;-146.27;100.00;64033.13;5091935;28;19951;-38
2022/06/15 06:15:58;;;;;;;;;;;;;;;-146.27;100.00;64033.13;5091573;28;19920;-37
2022/06/15 06:18:24;;;;;;;;;;;;;;;-146.27;100.00;64033.13;5091797;28;19920;-37
2022/06/15 06:20:49;;;;;;;;;;;;;;;-146.27;100.00;64033.13;5090459;28;19912;-36
2022/06/15 06:23:15;;;;;;;;;;;;;;;-146.27;100.00;64033.13;5090739;28;19912;-38
2022/06/15 06:25:41;;;;;;;;;;;;;;;-146.27;100.00;64033.13;5089810;28;19962;-37
2022/06/15 06:28:23;;;;;;;;;;;;;;;-146.27;100.00;64033.13;5091330;28;20012;-38
2022/06/15 06:30:49;;;;;;;;;;;;;;;-146.27;100.00;64033.13;5091085;28;19912;-38
2022/06/15 06:33:14;;;;;;;;;;;;;;;-146.27;100.00;64033.13;5091012;28;19931;-37
2022/06/15 06:35:39;;;;;;;;;;;;;;;-146.27;100.00;64033.13;5091437;28;20002;-38
2022/06/15 06:38:04;;;;;;;;;;;;;;;-146.27;100.00;64033.13;5091478;28;19912;-37
2022/06/15 06:40:30;;;;;;;;;;;;;;;-146.27;100.00;64033.13;5091703;28;19923;-37
2022/06/15 06:42:55;;;;;;;;;;;;;;;-146.27;100.00;64033.13;5091220;28;19912;-37
2022/06/15 06:45:20;;;;;;;;;;;;;;;-146.27;100.00;64033.13;5091468;28;20486;-37
2022/06/15 06:47:46;;;;;;;;;;;;;;;-146.27;100.00;64033.13;5091001;28;19930;-40
2022/06/15 06:50:11;;;;;;;;;;;;;;;-146.27;100.00;64033.13;5091206;28;19934;-38
2022/06/15 06:52:36;;;;;;;;;;;;;;;-146.27;100.00;64033.13;5091000;28;19912;-37
2022/06/15 06:55:02;;;;;;;;;;;;;;;-146.27;100.00;64033.13;5091097;28;20360;-39
2022/06/15 06:57:27;;;;;;;;;;;;;;;-146.27;100.00;64033.13;5091270;28;19951;-37
2022/06/15 06:59:52;;;;;;;;;;;;;;;-146.27;100.00;64033.13;5090870;28;19920;-38
2022/06/15 07:02:17;;;;;;;;;;;;;;;-146.27;100.00;64033.13;5091024;28;19965;-37
2022/06/15 07:04:43;;;;;;;;;;;;;;;-146.27;100.00;64033.13;5090861;28;19912;-37
2022/06/15 07:07:08;;;;;;;;;;;;;;;-146.27;100.00;64033.13;5091090;28;20398;-36
2022/06/15 07:09:34;;;;;;;;;;;;;;;-146.27;100.00;64033.13;5090956;28;19916;-36
2022/06/15 07:11:59;;;;;;;;;;;;;;;-146.27;100.00;64033.13;5090818;28;19951;-37
2022/06/15 07:14:25;;;;;;;;;;;;;;;-146.27;100.00;64033.13;5091005;28;20405;-38
2022/06/15 07:16:50;;;;;;;;;;;;;;;-146.27;100.00;64033.13;5090953;28;19954;-38
2022/06/15 07:19:15;;;;;;;;;;;;;;;-146.27;100.00;64033.13;5091087;28;19965;-37
2022/06/15 07:21:41;;;;;;;;;;;;;;;-146.27;100.00;64033.13;5090515;28;19912;-38
2022/06/15 07:24:07;;;;;;;;;;;;;;;-146.27;100.00;64033.13;5090830;28;20370;-38
2022/06/15 07:26:34;;;;;;;;;;;;;;;-146.27;100.00;64033.13;5091474;28;19912;-38
2022/06/15 07:29:00;;;;;;;;;;;;;;;-146.27;100.00;64033.13;5090985;28;19985;-38
2022/06/15 07:31:26;;;;;;;;;;;;;;;-146.27;100.00;64033.13;5090147;28;20383;-38
2022/06/15 07:33:52;;;;;;;;;;;;;;;-146.27;100.00;64033.13;5090666;28;20013;-38
2022/06/15 07:36:17;;;;;;;;;;;;;;;-146.27;100.00;64033.13;5090238;28;19951;-38
2022/06/15 07:38:43;;;;;;;;;;;;;;;-146.27;100.00;64033.13;5090794;28;19916;-38
2022/06/15 07:41:08;;;;;;;;;;;;;;;-146.27;100.00;64033.13;5090668;28;20420;-37
2022/06/15 07:43:33;;;;;;;;;;;;;;;-146.27;100.00;64033.13;5090339;28;19981;-37
2022/06/15 07:45:59;;;;;;;;;;;;;;;-146.27;100.00;64033.13;5090738;28;19919;-37
2022/06/15 07:51:08;;;;;;;;;;;;;;;-146.27;100.00;64033.13;5090552;28;19923;-38
2022/06/15 07:53:34;;;;;;;;;;;;;;;-146.27;100.00;64033.13;5090323;28;20299;-37
2022/06/15 07:55:59;;;;;;;;;;;;;;;-146.27;100.00;64033.13;5090102;28;19926;-37
2022/06/15 07:58:24;;;;;;;;;;;;;;;-146.27;100.00;64033.13;5090557;28;19916;-37
2022/06/15 08:00:50;;;;;;;;;;;;;;;-146.27;100.00;64033.13;5090102;28;19935;-37
2022/06/15 08:03:15;;;;;;;;;;;;;;;-146.27;100.00;64033.13;5089995;28;19948;-37
2022/06/15 08:05:45;;;;;;;;;;;;;;;-146.27;100.00;64033.13;5090500;28;19931;-38
2022/06/15 08:08:12;;;;;;;;;;;;;;;-146.27;100.00;64033.13;5089449;28;20283;-37
2022/06/15 08:10:37;;;;;;;;;;;;;;;-146.27;100.00;64033.13;5090315;28;19984;-38
2022/06/15 08:13:03;;;;;;;;;;;;;;;-146.27;100.00;64033.13;5089968;28;20382;-35
2022/06/15 08:15:29;;;;;;;;;;;;;;;-146.27;100.00;64033.13;5089784;28;19920;-38
2022/06/15 08:17:58;;;;;;;;;;;;;;;-146.27;100.00;64033.13;5090357;28;19912;-37
2022/06/15 08:20:26;;;;;;;;;;;;;;;-146.27;100.00;64033.13;5094306;28;19995;-39
2022/06/15 08:22:53;;;;;;;;;;;;;;;-146.27;100.00;64033.13;5111168;28;20346;-38
2022/06/15 08:25:31;;;;;;;;;;;;;;;-146.27;100.00;64033.13;5110700;28;20002;-37
2022/06/15 08:27:56;;;;;;;;;;;;;;;-146.27;100.00;64033.13;5110949;28;20614;-37
2022/06/15 08:30:22;;;;;;;;;;;;;;;-146.27;100.00;64033.13;5111487;28;19912;-37
2022/06/15 08:32:48;;;;;;;;;;;;;;;-146.27;100.00;64033.13;5110564;28;19989;-37
2022/06/15 08:35:14;;;;;;;;;;;;;;;-146.27;100.00;64033.13;5109793;28;19927;-37
2022/06/15 08:37:40;;;;;;;;;;;;;;;-146.27;100.00;64033.13;5110621;28;19911;-38
2022/06/15 08:40:06;;;;;;;;;;;;;;;-146.27;100.00;64033.13;5110258;28;19916;-38
2022/06/15 08:42:47;;;;;;;;;;;;;;;-146.27;100.00;64033.13;5110244;28;19934;-38
2022/06/15 08:45:12;;;;;;;;;;;;;;;-146.27;100.00;64033.13;5110032;28;19924;-38
2022/06/15 08:47:38;;;;;;;;;;;;;;;-146.27;100.00;64033.13;5110639;28;20056;-37
2022/06/15 08:50:04;;;;;;;;;;;;;;;-146.27;100.00;64033.13;5113673;28;20021;-37
2022/06/15 08:52:32;;;;;;;;;;;;;;;-146.27;100.00;64033.13;5113861;28;20379;-37
2022/06/15 08:54:59;;;;;;;;;;;;;;;-146.27;100.00;64033.13;5113923;28;20006;-37
2022/06/15 08:57:38;;;;;;;;;;;;;;;-146.27;100.00;64033.13;5114054;28;19912;-38
2022/06/15 09:00:10;;;;;;;;;;;;;;;-146.27;100.00;64033.13;5114160;28;19927;-38
2022/06/15 09:02:38;;;;;;;;;;;;;;;-146.27;100.00;64033.13;5113749;28;19935;-38
2022/06/15 09:05:23;;;;;;;;;;;;;;;-146.27;100.00;64033.13;5112035;28;19912;-38
2022/06/15 09:07:54;;;;;;;;;;;;;;;-146.27;100.00;64033.13;5093797;28;19932;-38
2022/06/15 09:10:44;;;;;;;;;;;;;;;-146.27;100.00;64033.13;5093206;28;20335;-38
2022/06/15 09:13:16;;;;;;;;;;;;;;;-146.27;100.00;64033.13;5092856;28;19912;-38
2022/06/15 09:15:48;;;;;;;;;;;;;;;-146.27;100.00;64033.13;5092976;28;19912;-37
2022/06/15 09:18:20;;;;;;;;;;;;;;;-146.27;100.00;64033.13;5093031;28;19919;-38
2022/06/15 09:20:49;;;;;;;;;;;;;;;-146.27;100.00;64033.13;5099297;28;19955;-38
2022/06/15 09:23:17;;;;;;;;;;;;;;;-146.27;100.00;64033.13;5113115;28;19918;-37
2022/06/15 09:25:45;;;;;;;;;;;;;;;-146.27;100.00;64033.13;5113272;28;20339;-38
2022/06/15 09:28:13;;;;;;;;;;;;;;;-146.27;100.00;64033.13;5112910;28;19911;-38
2022/06/15 09:30:41;;;;;;;;;;;;;;;-146.27;100.00;64033.13;5113199;28;19923;-38
2022/06/15 09:33:18;;;;;;;;;;;;;;;-146.27;100.00;64033.13;5112987;28;19991;-38
2022/06/15 09:35:46;;;;;;;;;;;;;;;-146.27;100.00;64033.13;5113257;28;19943;-37
2022/06/15 09:38:13;;;;;;;;;;;;;;;-146.27;100.00;64033.13;5112958;28;19923;-38
2022/06/15 09:40:43;;;;;;;;;;;;;;;-146.27;100.00;64033.13;5112778;28;19915;-37
2022/06/15 09:43:38;;;;;;;;;;;;;;;-146.27;100.00;64033.13;5112911;28;19986;-37
2022/06/15 09:46:04;;;;;;;;;;;;;;;-146.27;100.00;64033.13;5107933;28;20276;-36
2022/06/15 09:48:36;;;;;;;;;;;;;;;-146.27;100.00;64033.13;5113212;28;19961;-38
2022/06/15 09:51:27;;;;;;;;;;;;;;;-146.27;100.00;64033.13;5112675;27;19924;-38
2022/06/15 09:53:55;;;;;;;;;;;;;;;-146.27;100.00;64033.13;5104111;28;19912;-38
2022/06/15 09:56:21;;;;;;;;;;;;;;;-146.27;100.00;64033.13;5113196;28;19923;-38
2022/06/15 09:58:47;;;;;;;;;;;;;;;-146.27;100.00;64033.13;5112758;28;20371;-38
2022/06/15 10:01:13;;;;;;;;;;;;;;;-146.27;100.00;64033.13;5112600;28;19918;-38
2022/06/15 10:03:42;;;;;;;;;;;;;;;-146.27;100.00;64033.13;5112691;28;19995;-36
2022/06/15 10:06:21;;;;;;;;;;;;;;;-146.27;100.00;64033.13;5112715;28;19911;-38
2022/06/15 10:08:46;;;;;;;;;;;;;;;-146.27;100.00;64033.13;5112451;28;20307;-38
2022/06/15 10:11:28;;;;;;;;;;;;;;;-146.27;100.00;64033.13;5111791;28;19931;-36
2022/06/15 10:13:54;;;;;;;;;;;;;;;-146.27;100.00;64033.13;5083119;28;20006;-36
2022/06/15 10:16:22;;;;;;;;;;;;;;;-146.27;100.00;64033.13;5091547;28;19959;-37
2022/06/15 10:18:49;;;;;;;;;;;;;;;-146.27;100.00;64033.13;5091771;28;19916;-37
2022/06/15 10:21:15;;;;;;;;;;;;;;;-146.27;100.00;64033.13;5091391;28;20260;-37
2022/06/15 10:23:46;;;;;;;;;;;;;;;-146.27;100.00;64033.13;5091599;28;20384;-37
2022/06/15 10:26:23;;;;;;;;;;;;;;;-146.27;100.00;64033.13;5091843;28;19919;-37
2022/06/15 10:28:48;;;;;;;;;;;;;;;-146.27;100.00;64033.13;5091763;28;19944;-37
2022/06/15 10:31:15;;;;;;;;;;;;;;;-146.27;100.00;64033.13;5092021;28;20457;-37
2022/06/15 10:33:40;;;;;;;;;;;;;;;-146.27;100.00;64033.13;5091356;28;20015;-37
2022/06/15 10:36:16;;;;;;;;;;;;;;;-146.27;100.00;64033.13;5091929;28;20384;-38
2022/06/15 10:38:42;;;;;;;;;;;;;;;-146.27;100.00;64033.13;5091475;28;19916;-37
2022/06/15 10:43:51;;;;;;;;;;;;;;;-146.27;100.00;64033.13;5091443;28;19960;-38
2022/06/15 10:46:17;;;;;;;;;;;;;;;-146.27;100.00;64033.13;5091843;28;19916;-37
2022/06/15 10:48:47;;;;;;;;;;;;;;;-146.27;100.00;64033.13;5091287;28;19912;-38
2022/06/15 10:51:15;;;;;;;;;;;;;;;-146.27;100.00;64033.13;5091584;28;19912;-38
2022/06/15 10:53:43;;;;;;;;;;;;;;;-146.27;100.00;64033.13;5091359;28;19912;-40
2022/06/15 11:02:26;;;;;;;;;;;;;;;-146.27;100.00;64033.13;5087847;28;19912;-37
2022/06/15 11:04:55;;;;;;;;;;;;;;;-146.27;100.00;64033.13;5091301;28;19931;-37
2022/06/15 11:07:20;;;;;;;;;;;;;;;-146.27;100.00;64033.13;5091314;28;19913;-37
2022/06/15 11:09:55;;;;;;;;;;;;;;;-146.27;100.00;64033.13;5090915;28;19970;-38
2022/06/15 11:12:33;;;;;;;;;;;;;;;-146.27;100.00;64033.13;5090407;28;20375;-38
2022/06/15 11:15:00;;;;;;;;;;;;;;;-146.27;100.00;64033.13;5070323;28;19918;-38
2022/06/15 11:20:26;;;;;;;;;;;;;;;-146.27;100.00;64033.13;5075230;28;19966;-38
2022/06/15 11:22:52;;;;;;;;;;;;;;;-146.27;100.00;64033.13;5110766;28;19969;-38
2022/06/15 11:25:20;;;;;;;;;;;;;;;-146.27;100.00;64033.13;5110913;28;19912;-38
2022/06/15 11:27:51;;;;;;;;;;;;;;;-146.27;100.00;64033.13;5110957;28;19916;-38
2022/06/15 11:30:19;;;;;;;;;;;;;;;-146.27;100.00;64033.13;5110912;28;19954;-38
2022/06/15 11:32:45;;;;;;;;;;;;;;;-146.27;100.00;64033.13;5110637;28;19920;-38
2022/06/15 11:35:13;;;;;;;;;;;;;;;-146.27;100.00;64033.13;5110839;28;20345;-37
2022/06/15 11:37:43;;;;;;;;;;;;;;;-146.27;100.00;64033.13;5109418;28;19912;-37
2022/06/15 11:40:14;;;;;;;;;;;;;;;-146.27;100.00;64033.13;5110984;28;20006;-38
2022/06/15 11:42:40;;;;;;;;;;;;;;;-146.27;100.00;64033.13;5110740;28;19961;-38
2022/06/15 11:45:11;;;;;;;;;;;;;;;-146.27;100.00;64033.13;5111075;28;19916;-38
2022/06/15 11:47:41;;;;;;;;;;;;;;;-146.27;100.00;64033.13;5110900;28;19945;-38
2022/06/15 11:50:16;;;;;;;;;;;;;;;-146.27;100.00;64033.13;5111124;28;19912;-38
2022/06/15 11:52:48;;;;;;;;;;;;;;;-146.27;100.00;64033.13;5106133;28;19943;-39
2022/06/15 11:55:22;;;;;;;;;;;;;;;-146.27;100.00;64033.13;5090938;28;20353;-51
2022/06/15 11:57:47;;;;;;;;;;;;;;;-146.27;100.00;64033.13;5090234;28;19912;-52
2022/06/15 12:00:19;;;;;;;;;;;;;;;-146.27;100.00;64033.13;5090827;28;19950;-51
2022/06/15 12:03:03;;;;;;;;;;;;;;;-146.27;100.00;64033.13;5090737;28;20326;-56
2022/06/15 12:05:33;;;;;;;;;;;;;;;-146.27;100.00;64033.13;5090560;28;19915;-51
2022/06/15 12:08:15;;;;;;;;;;;;;;;-146.27;100.00;64033.13;5090342;28;20379;-51
2022/06/15 12:10:45;;;;;;;;;;;;;;;-146.27;100.00;64033.13;5090690;28;19927;-52
2022/06/15 12:13:29;;;;;;;;;;;;;;;-146.27;100.00;64033.13;5090351;28;20056;-51
2022/06/15 12:16:02;;;;;;;;;;;;;;;-146.27;100.00;64033.13;5090627;28;19916;-51
2022/06/15 12:18:47;;;;;;;;;;;;;;;-146.27;100.00;64033.13;5090196;28;20308;-51
2022/06/15 12:21:23;;;;;;;;;;;;;;;-146.27;100.00;64033.13;5100209;28;20443;-51
2022/06/15 12:23:48;;;;;;;;;;;;;;;-146.27;100.00;64033.13;5112859;28;19912;-52
2022/06/15 12:26:28;;;;;;;;;;;;;;;-146.27;100.00;64033.13;5115165;28;20268;-52
2022/06/15 12:29:01;;;;;;;;;;;;;;;-146.27;100.00;64033.13;5114668;28;19915;-49
2022/06/15 12:31:45;;;;;;;;;;;;;;;-146.27;100.00;64033.13;5114296;28;19996;-51
2022/06/15 12:34:29;;;;;;;;;;;;;;;-146.27;100.00;64033.13;5114536;28;19924;-52
2022/06/15 12:36:59;;;;;;;;;;;;;;;-146.27;100.00;64033.13;5114057;28;20077;-49
2022/06/15 12:39:28;;;;;;;;;;;;;;;-146.27;100.00;64033.13;5114164;28;19915;-50
2022/06/15 12:42:09;;;;;;;;;;;;;;;-146.27;100.00;64033.13;5114093;28;20485;-51
2022/06/15 12:44:34;;;;;;;;;;;;;;;-146.27;100.00;64033.13;5114441;28;20336;-49